sensor_id;sensor_type;location;lat;lon;timestamp;P1;durP1;ratioP1;P2;durP2;ratioP2
422;SDS011;198;48.752;9.180;2023-08-30T00:00:36;13.97;;;9.47;;
422;SDS011;198;48.752;9.180;2023-08-30T00:03:02;13.83;;;9.43;;
422;SDS011;198;48.752;9.180;2023-08-30T00:05:27;16.50;;;9.17;;
422;SDS011;198;48.752;9.180;2023-08-30T00:07:53;12.43;;;8.90;;
422;SDS011;198;48.752;9.180;2023-08-30T00:10:19;19.83;;;8.77;;
422;SDS011;198;48.752;9.180;2023-08-30T00:12:45;14.33;;;9.93;;
422;SDS011;198;48.752;9.180;2023-08-30T00:15:10;13.67;;;9.33;;
422;SDS011;198;48.752;9.180;2023-08-30T00:17:36;13.57;;;9.20;;
422;SDS011;198;48.752;9.180;2023-08-30T00:20:01;13.00;;;9.13;;
422;SDS011;198;48.752;9.180;2023-08-30T00:22:27;13.93;;;9.17;;
422;SDS011;198;48.752;9.180;2023-08-30T00:24:53;15.40;;;9.60;;
422;SDS011;198;48.752;9.180;2023-08-30T00:27:19;20.10;;;8.70;;
422;SDS011;198;48.752;9.180;2023-08-30T00:29:45;12.70;;;8.70;;
422;SDS011;198;48.752;9.180;2023-08-30T00:32:11;19.70;;;10.50;;
422;SDS011;198;48.752;9.180;2023-08-30T00:34:37;15.87;;;10.67;;
422;SDS011;198;48.752;9.180;2023-08-30T00:37:02;15.80;;;8.87;;
422;SDS011;198;48.752;9.180;2023-08-30T00:39:28;12.80;;;8.70;;
422;SDS011;198;48.752;9.180;2023-08-30T00:41:53;21.90;;;10.53;;
422;SDS011;198;48.752;9.180;2023-08-30T00:44:19;16.37;;;10.00;;
422;SDS011;198;48.752;9.180;2023-08-30T00:46:44;15.60;;;11.43;;
422;SDS011;198;48.752;9.180;2023-08-30T00:49:10;14.27;;;9.97;;
422;SDS011;198;48.752;9.180;2023-08-30T00:51:36;19.83;;;9.97;;
422;SDS011;198;48.752;9.180;2023-08-30T00:54:02;14.50;;;9.53;;
422;SDS011;198;48.752;9.180;2023-08-30T00:56:28;17.47;;;10.13;;
422;SDS011;198;48.752;9.180;2023-08-30T00:58:54;14.17;;;9.53;;
422;SDS011;198;48.752;9.180;2023-08-30T01:01:20;14.60;;;9.43;;
422;SDS011;198;48.752;9.180;2023-08-30T01:03:46;17.50;;;10.97;;
422;SDS011;198;48.752;9.180;2023-08-30T01:06:12;16.37;;;10.73;;
422;SDS011;198;48.752;9.180;2023-08-30T01:08:41;14.73;;;9.10;;
422;SDS011;198;48.752;9.180;2023-08-30T01:14:07;13.60;;;9.23;;
422;SDS011;198;48.752;9.180;2023-08-30T01:16:37;14.40;;;8.77;;
422;SDS011;198;48.752;9.180;2023-08-30T01:19:04;11.00;;;7.77;;
422;SDS011;198;48.752;9.180;2023-08-30T01:27:17;13.23;;;8.93;;
422;SDS011;198;48.752;9.180;2023-08-30T01:29:44;17.23;;;8.80;;
422;SDS011;198;48.752;9.180;2023-08-30T01:32:11;10.57;;;7.97;;
422;SDS011;198;48.752;9.180;2023-08-30T01:34:37;16.20;;;10.47;;
422;SDS011;198;48.752;9.180;2023-08-30T01:37:04;18.63;;;8.43;;
422;SDS011;198;48.752;9.180;2023-08-30T01:39:33;19.20;;;9.50;;
422;SDS011;198;48.752;9.180;2023-08-30T01:42:01;13.30;;;9.43;;
422;SDS011;198;48.752;9.180;2023-08-30T01:44:28;18.03;;;8.60;;
422;SDS011;198;48.752;9.180;2023-08-30T01:46:55;12.43;;;8.70;;
422;SDS011;198;48.752;9.180;2023-08-30T01:49:22;15.30;;;10.07;;
422;SDS011;198;48.752;9.180;2023-08-30T01:51:49;12.23;;;8.67;;
422;SDS011;198;48.752;9.180;2023-08-30T01:54:17;14.37;;;9.17;;
422;SDS011;198;48.752;9.180;2023-08-30T01:56:43;13.40;;;8.93;;
422;SDS011;198;48.752;9.180;2023-08-30T01:59:12;13.40;;;9.77;;
422;SDS011;198;48.752;9.180;2023-08-30T02:01:38;14.03;;;8.67;;
422;SDS011;198;48.752;9.180;2023-08-30T02:04:03;12.90;;;8.53;;
422;SDS011;198;48.752;9.180;2023-08-30T02:06:32;15.70;;;8.80;;
422;SDS011;198;48.752;9.180;2023-08-30T02:09:14;16.93;;;8.80;;
422;SDS011;198;48.752;9.180;2023-08-30T02:11:46;23.40;;;9.27;;
422;SDS011;198;48.752;9.180;2023-08-30T02:14:15;27.37;;;10.47;;
422;SDS011;198;48.752;9.180;2023-08-30T02:16:42;16.33;;;10.40;;
422;SDS011;198;48.752;9.180;2023-08-30T02:19:10;20.63;;;9.00;;
422;SDS011;198;48.752;9.180;2023-08-30T02:21:37;14.73;;;8.73;;
422;SDS011;198;48.752;9.180;2023-08-30T02:24:05;25.30;;;9.83;;
422;SDS011;198;48.752;9.180;2023-08-30T02:26:31;15.20;;;9.20;;
422;SDS011;198;48.752;9.180;2023-08-30T02:28:56;12.77;;;9.10;;
422;SDS011;198;48.752;9.180;2023-08-30T02:31:22;16.63;;;9.50;;
422;SDS011;198;48.752;9.180;2023-08-30T02:33:47;16.17;;;9.00;;
422;SDS011;198;48.752;9.180;2023-08-30T02:36:13;17.80;;;9.53;;
422;SDS011;198;48.752;9.180;2023-08-30T02:38:38;15.70;;;9.13;;
422;SDS011;198;48.752;9.180;2023-08-30T02:41:04;30.80;;;9.10;;
422;SDS011;198;48.752;9.180;2023-08-30T02:43:29;15.17;;;9.57;;
422;SDS011;198;48.752;9.180;2023-08-30T02:45:55;12.50;;;8.63;;
422;SDS011;198;48.752;9.180;2023-08-30T02:48:21;16.43;;;8.47;;
422;SDS011;198;48.752;9.180;2023-08-30T02:50:46;14.30;;;8.97;;
422;SDS011;198;48.752;9.180;2023-08-30T02:53:12;11.93;;;8.57;;
422;SDS011;198;48.752;9.180;2023-08-30T02:55:37;11.83;;;8.00;;
422;SDS011;198;48.752;9.180;2023-08-30T02:58:03;13.93;;;9.03;;
422;SDS011;198;48.752;9.180;2023-08-30T03:00:28;16.20;;;9.43;;
422;SDS011;198;48.752;9.180;2023-08-30T03:02:54;9.70;;;7.20;;
422;SDS011;198;48.752;9.180;2023-08-30T03:05:19;13.43;;;8.97;;
422;SDS011;198;48.752;9.180;2023-08-30T03:07:45;12.37;;;8.87;;
422;SDS011;198;48.752;9.180;2023-08-30T03:10:11;14.97;;;9.83;;
422;SDS011;198;48.752;9.180;2023-08-30T03:12:37;20.43;;;11.13;;
422;SDS011;198;48.752;9.180;2023-08-30T03:15:02;13.10;;;8.73;;
422;SDS011;198;48.752;9.180;2023-08-30T03:17:29;14.37;;;9.60;;
422;SDS011;198;48.752;9.180;2023-08-30T03:19:54;16.73;;;9.43;;
422;SDS011;198;48.752;9.180;2023-08-30T03:22:20;16.63;;;11.43;;
422;SDS011;198;48.752;9.180;2023-08-30T03:24:46;20.43;;;10.27;;
422;SDS011;198;48.752;9.180;2023-08-30T03:27:11;17.77;;;10.70;;
422;SDS011;198;48.752;9.180;2023-08-30T03:29:37;15.60;;;10.40;;
422;SDS011;198;48.752;9.180;2023-08-30T03:32:02;17.40;;;10.30;;
422;SDS011;198;48.752;9.180;2023-08-30T03:34:28;24.33;;;11.40;;
422;SDS011;198;48.752;9.180;2023-08-30T03:36:53;19.10;;;10.57;;
422;SDS011;198;48.752;9.180;2023-08-30T03:39:22;18.57;;;10.83;;
422;SDS011;198;48.752;9.180;2023-08-30T03:41:49;19.60;;;11.70;;
422;SDS011;198;48.752;9.180;2023-08-30T03:44:15;16.77;;;10.53;;
422;SDS011;198;48.752;9.180;2023-08-30T03:46:40;22.43;;;11.90;;
422;SDS011;198;48.752;9.180;2023-08-30T03:49:06;23.07;;;11.70;;
422;SDS011;198;48.752;9.180;2023-08-30T03:51:31;18.47;;;11.03;;
422;SDS011;198;48.752;9.180;2023-08-30T03:53:57;14.93;;;9.90;;
422;SDS011;198;48.752;9.180;2023-08-30T03:56:22;17.87;;;12.00;;
422;SDS011;198;48.752;9.180;2023-08-30T03:58:48;18.90;;;12.30;;
422;SDS011;198;48.752;9.180;2023-08-30T04:01:13;16.70;;;10.00;;
422;SDS011;198;48.752;9.180;2023-08-30T04:03:39;16.33;;;10.20;;
422;SDS011;198;48.752;9.180;2023-08-30T04:06:04;14.90;;;10.13;;
422;SDS011;198;48.752;9.180;2023-08-30T04:08:30;17.17;;;10.80;;
422;SDS011;198;48.752;9.180;2023-08-30T04:10:56;17.30;;;11.60;;
422;SDS011;198;48.752;9.180;2023-08-30T04:13:21;22.77;;;12.60;;
422;SDS011;198;48.752;9.180;2023-08-30T04:15:47;15.83;;;10.07;;
422;SDS011;198;48.752;9.180;2023-08-30T04:18:13;17.73;;;10.63;;
422;SDS011;198;48.752;9.180;2023-08-30T04:20:42;14.50;;;9.40;;
422;SDS011;198;48.752;9.180;2023-08-30T04:23:09;14.03;;;9.43;;
422;SDS011;198;48.752;9.180;2023-08-30T04:25:34;15.30;;;9.50;;
422;SDS011;198;48.752;9.180;2023-08-30T04:28:00;15.63;;;11.03;;
422;SDS011;198;48.752;9.180;2023-08-30T04:30:25;28.77;;;10.87;;
422;SDS011;198;48.752;9.180;2023-08-30T04:32:51;15.17;;;9.80;;
422;SDS011;198;48.752;9.180;2023-08-30T04:35:16;17.27;;;11.30;;
422;SDS011;198;48.752;9.180;2023-08-30T04:37:43;23.47;;;12.63;;
422;SDS011;198;48.752;9.180;2023-08-30T04:40:08;25.67;;;12.30;;
422;SDS011;198;48.752;9.180;2023-08-30T04:42:35;19.60;;;11.80;;
422;SDS011;198;48.752;9.180;2023-08-30T04:45:01;19.80;;;10.93;;
422;SDS011;198;48.752;9.180;2023-08-30T04:47:28;21.60;;;9.80;;
422;SDS011;198;48.752;9.180;2023-08-30T04:49:55;25.30;;;10.70;;
422;SDS011;198;48.752;9.180;2023-08-30T04:52:20;15.07;;;10.30;;
422;SDS011;198;48.752;9.180;2023-08-30T04:54:46;18.53;;;11.90;;
422;SDS011;198;48.752;9.180;2023-08-30T04:57:12;17.40;;;11.20;;
422;SDS011;198;48.752;9.180;2023-08-30T04:59:41;17.93;;;10.53;;
422;SDS011;198;48.752;9.180;2023-08-30T05:02:07;16.27;;;9.60;;
422;SDS011;198;48.752;9.180;2023-08-30T05:04:33;18.73;;;10.37;;
422;SDS011;198;48.752;9.180;2023-08-30T05:06:58;16.10;;;10.40;;
422;SDS011;198;48.752;9.180;2023-08-30T05:09:24;16.87;;;9.70;;
422;SDS011;198;48.752;9.180;2023-08-30T05:11:52;16.53;;;11.20;;
422;SDS011;198;48.752;9.180;2023-08-30T05:14:18;21.57;;;11.43;;
422;SDS011;198;48.752;9.180;2023-08-30T05:16:44;22.37;;;10.33;;
422;SDS011;198;48.752;9.180;2023-08-30T05:19:10;20.50;;;10.30;;
422;SDS011;198;48.752;9.180;2023-08-30T05:21:36;23.63;;;10.90;;
422;SDS011;198;48.752;9.180;2023-08-30T05:24:01;15.10;;;9.17;;
422;SDS011;198;48.752;9.180;2023-08-30T05:26:27;17.93;;;11.07;;
422;SDS011;198;48.752;9.180;2023-08-30T05:28:53;13.60;;;9.07;;
422;SDS011;198;48.752;9.180;2023-08-30T05:31:18;14.07;;;9.67;;
422;SDS011;198;48.752;9.180;2023-08-30T05:33:44;14.70;;;9.50;;
422;SDS011;198;48.752;9.180;2023-08-30T05:36:09;17.10;;;11.20;;
422;SDS011;198;48.752;9.180;2023-08-30T05:38:35;12.13;;;8.77;;
422;SDS011;198;48.752;9.180;2023-08-30T05:41:00;18.10;;;10.67;;
422;SDS011;198;48.752;9.180;2023-08-30T05:43:26;15.30;;;10.27;;
422;SDS011;198;48.752;9.180;2023-08-30T05:45:51;16.73;;;8.70;;
422;SDS011;198;48.752;9.180;2023-08-30T05:48:17;16.03;;;10.40;;
422;SDS011;198;48.752;9.180;2023-08-30T05:50:42;16.60;;;9.17;;
422;SDS011;198;48.752;9.180;2023-08-30T05:53:10;11.37;;;7.80;;
422;SDS011;198;48.752;9.180;2023-08-30T05:55:35;17.63;;;7.83;;
422;SDS011;198;48.752;9.180;2023-08-30T05:58:02;15.50;;;8.63;;
422;SDS011;198;48.752;9.180;2023-08-30T06:00:28;14.07;;;9.07;;
422;SDS011;198;48.752;9.180;2023-08-30T06:02:53;13.83;;;8.43;;
422;SDS011;198;48.752;9.180;2023-08-30T06:05:19;21.10;;;8.53;;
422;SDS011;198;48.752;9.180;2023-08-30T06:07:44;14.23;;;8.20;;
422;SDS011;198;48.752;9.180;2023-08-30T06:10:10;21.23;;;9.27;;
422;SDS011;198;48.752;9.180;2023-08-30T06:12:36;13.43;;;8.30;;
422;SDS011;198;48.752;9.180;2023-08-30T06:15:01;12.73;;;7.30;;
422;SDS011;198;48.752;9.180;2023-08-30T06:17:28;14.03;;;8.23;;
422;SDS011;198;48.752;9.180;2023-08-30T06:19:54;13.67;;;8.60;;
422;SDS011;198;48.752;9.180;2023-08-30T06:22:19;11.70;;;7.70;;
422;SDS011;198;48.752;9.180;2023-08-30T06:24:45;9.83;;;7.23;;
422;SDS011;198;48.752;9.180;2023-08-30T06:27:10;13.27;;;6.10;;
422;SDS011;198;48.752;9.180;2023-08-30T06:29:36;11.37;;;7.93;;
422;SDS011;198;48.752;9.180;2023-08-30T06:32:01;15.20;;;8.37;;
422;SDS011;198;48.752;9.180;2023-08-30T06:34:27;15.77;;;8.10;;
422;SDS011;198;48.752;9.180;2023-08-30T06:36:53;16.40;;;8.27;;
422;SDS011;198;48.752;9.180;2023-08-30T06:39:18;13.20;;;8.13;;
422;SDS011;198;48.752;9.180;2023-08-30T06:41:44;12.53;;;8.63;;
422;SDS011;198;48.752;9.180;2023-08-30T06:44:09;9.60;;;6.37;;
422;SDS011;198;48.752;9.180;2023-08-30T06:46:35;12.90;;;8.50;;
422;SDS011;198;48.752;9.180;2023-08-30T06:49:02;13.00;;;7.90;;
422;SDS011;198;48.752;9.180;2023-08-30T06:51:28;11.17;;;8.27;;
422;SDS011;198;48.752;9.180;2023-08-30T06:53:53;11.00;;;7.67;;
422;SDS011;198;48.752;9.180;2023-08-30T06:56:20;11.97;;;8.33;;
422;SDS011;198;48.752;9.180;2023-08-30T06:58:45;15.57;;;8.17;;
422;SDS011;198;48.752;9.180;2023-08-30T07:01:11;13.33;;;8.10;;
422;SDS011;198;48.752;9.180;2023-08-30T07:03:37;13.43;;;8.77;;
422;SDS011;198;48.752;9.180;2023-08-30T07:06:04;10.73;;;7.87;;
422;SDS011;198;48.752;9.180;2023-08-30T07:08:30;10.90;;;7.50;;
422;SDS011;198;48.752;9.180;2023-08-30T07:10:56;13.37;;;8.23;;
422;SDS011;198;48.752;9.180;2023-08-30T07:13:21;11.23;;;7.33;;
422;SDS011;198;48.752;9.180;2023-08-30T07:15:47;10.53;;;6.77;;
422;SDS011;198;48.752;9.180;2023-08-30T07:18:13;10.63;;;7.80;;
422;SDS011;198;48.752;9.180;2023-08-30T07:20:39;13.43;;;8.33;;
422;SDS011;198;48.752;9.180;2023-08-30T07:23:04;21.33;;;8.57;;
422;SDS011;198;48.752;9.180;2023-08-30T07:25:30;13.77;;;9.33;;
422;SDS011;198;48.752;9.180;2023-08-30T07:27:57;14.93;;;8.50;;
422;SDS011;198;48.752;9.180;2023-08-30T07:30:23;14.30;;;9.23;;
422;SDS011;198;48.752;9.180;2023-08-30T07:32:49;11.37;;;7.87;;
422;SDS011;198;48.752;9.180;2023-08-30T07:35:15;13.03;;;8.40;;
422;SDS011;198;48.752;9.180;2023-08-30T07:37:40;11.43;;;8.00;;
422;SDS011;198;48.752;9.180;2023-08-30T07:40:06;11.07;;;7.87;;
422;SDS011;198;48.752;9.180;2023-08-30T07:42:32;18.13;;;8.67;;
422;SDS011;198;48.752;9.180;2023-08-30T07:44:57;12.67;;;7.93;;
422;SDS011;198;48.752;9.180;2023-08-30T07:47:23;15.43;;;9.33;;
422;SDS011;198;48.752;9.180;2023-08-30T07:49:48;14.23;;;8.30;;
422;SDS011;198;48.752;9.180;2023-08-30T07:52:14;8.67;;;6.60;;
422;SDS011;198;48.752;9.180;2023-08-30T07:54:40;14.60;;;7.40;;
422;SDS011;198;48.752;9.180;2023-08-30T07:57:06;27.57;;;8.40;;
422;SDS011;198;48.752;9.180;2023-08-30T07:59:32;10.53;;;7.60;;
422;SDS011;198;48.752;9.180;2023-08-30T08:02:01;10.63;;;7.40;;
422;SDS011;198;48.752;9.180;2023-08-30T08:04:28;10.93;;;7.20;;
422;SDS011;198;48.752;9.180;2023-08-30T08:06:54;11.40;;;7.63;;
422;SDS011;198;48.752;9.180;2023-08-30T08:09:19;8.83;;;6.27;;
422;SDS011;198;48.752;9.180;2023-08-30T08:11:46;9.37;;;6.70;;
422;SDS011;198;48.752;9.180;2023-08-30T08:14:13;10.67;;;6.70;;
422;SDS011;198;48.752;9.180;2023-08-30T08:16:39;9.80;;;7.10;;
422;SDS011;198;48.752;9.180;2023-08-30T08:19:04;15.80;;;7.03;;
422;SDS011;198;48.752;9.180;2023-08-30T08:21:31;10.10;;;7.30;;
422;SDS011;198;48.752;9.180;2023-08-30T08:23:56;7.67;;;5.60;;
422;SDS011;198;48.752;9.180;2023-08-30T08:26:22;11.60;;;6.20;;
422;SDS011;198;48.752;9.180;2023-08-30T08:28:47;9.10;;;6.20;;
422;SDS011;198;48.752;9.180;2023-08-30T08:31:13;12.80;;;6.57;;
422;SDS011;198;48.752;9.180;2023-08-30T08:33:39;10.90;;;7.30;;
422;SDS011;198;48.752;9.180;2023-08-30T08:36:05;10.40;;;6.73;;
422;SDS011;198;48.752;9.180;2023-08-30T08:38:30;7.30;;;4.80;;
422;SDS011;198;48.752;9.180;2023-08-30T08:41:03;8.37;;;6.10;;
422;SDS011;198;48.752;9.180;2023-08-30T08:43:30;8.90;;;6.60;;
422;SDS011;198;48.752;9.180;2023-08-30T08:45:59;9.80;;;6.23;;
422;SDS011;198;48.752;9.180;2023-08-30T08:48:25;12.10;;;7.13;;
422;SDS011;198;48.752;9.180;2023-08-30T08:50:53;14.13;;;6.00;;
422;SDS011;198;48.752;9.180;2023-08-30T08:53:20;8.90;;;6.30;;
422;SDS011;198;48.752;9.180;2023-08-30T08:55:46;6.47;;;5.40;;
422;SDS011;198;48.752;9.180;2023-08-30T08:58:13;8.13;;;5.50;;
422;SDS011;198;48.752;9.180;2023-08-30T09:00:39;7.47;;;5.73;;
422;SDS011;198;48.752;9.180;2023-08-30T09:03:09;4.43;;;3.77;;
422;SDS011;198;48.752;9.180;2023-08-30T09:05:37;5.47;;;4.17;;
422;SDS011;198;48.752;9.180;2023-08-30T09:08:03;5.80;;;3.90;;
422;SDS011;198;48.752;9.180;2023-08-30T09:10:29;6.00;;;4.80;;
422;SDS011;198;48.752;9.180;2023-08-30T09:12:57;7.03;;;4.60;;
422;SDS011;198;48.752;9.180;2023-08-30T09:15:30;7.27;;;4.30;;
422;SDS011;198;48.752;9.180;2023-08-30T09:17:56;7.57;;;4.63;;
422;SDS011;198;48.752;9.180;2023-08-30T09:20:22;4.60;;;3.83;;
422;SDS011;198;48.752;9.180;2023-08-30T09:22:47;6.03;;;4.03;;
422;SDS011;198;48.752;9.180;2023-08-30T09:25:22;5.00;;;3.27;;
422;SDS011;198;48.752;9.180;2023-08-30T09:27:56;6.47;;;3.43;;
422;SDS011;198;48.752;9.180;2023-08-30T09:30:24;2.73;;;2.47;;
422;SDS011;198;48.752;9.180;2023-08-30T09:32:50;9.43;;;3.90;;
422;SDS011;198;48.752;9.180;2023-08-30T09:35:15;3.40;;;2.93;;
422;SDS011;198;48.752;9.180;2023-08-30T09:37:44;4.30;;;3.23;;
422;SDS011;198;48.752;9.180;2023-08-30T09:40:09;8.20;;;3.27;;
422;SDS011;198;48.752;9.180;2023-08-30T09:42:40;2.20;;;2.00;;
422;SDS011;198;48.752;9.180;2023-08-30T09:45:08;2.33;;;1.97;;
422;SDS011;198;48.752;9.180;2023-08-30T09:47:45;2.20;;;2.00;;
422;SDS011;198;48.752;9.180;2023-08-30T09:50:12;3.30;;;2.40;;
422;SDS011;198;48.752;9.180;2023-08-30T09:52:39;2.87;;;2.17;;
422;SDS011;198;48.752;9.180;2023-08-30T09:55:05;3.40;;;2.07;;
422;SDS011;198;48.752;9.180;2023-08-30T09:57:31;3.70;;;2.10;;
422;SDS011;198;48.752;9.180;2023-08-30T09:59:57;1.53;;;1.37;;
422;SDS011;198;48.752;9.180;2023-08-30T10:02:24;2.67;;;1.47;;
422;SDS011;198;48.752;9.180;2023-08-30T10:04:50;2.03;;;1.73;;
422;SDS011;198;48.752;9.180;2023-08-30T10:07:17;2.77;;;1.60;;
422;SDS011;198;48.752;9.180;2023-08-30T10:09:44;2.30;;;1.90;;
422;SDS011;198;48.752;9.180;2023-08-30T10:12:10;1.97;;;1.80;;
422;SDS011;198;48.752;9.180;2023-08-30T10:14:36;4.53;;;2.50;;
422;SDS011;198;48.752;9.180;2023-08-30T10:17:02;3.83;;;2.07;;
422;SDS011;198;48.752;9.180;2023-08-30T10:19:28;3.70;;;1.77;;
422;SDS011;198;48.752;9.180;2023-08-30T10:22:01;1.23;;;1.13;;
422;SDS011;198;48.752;9.180;2023-08-30T10:24:32;1.83;;;1.73;;
422;SDS011;198;48.752;9.180;2023-08-30T10:27:02;2.70;;;1.90;;
422;SDS011;198;48.752;9.180;2023-08-30T10:29:30;2.40;;;1.63;;
422;SDS011;198;48.752;9.180;2023-08-30T10:32:01;1.00;;;0.90;;
422;SDS011;198;48.752;9.180;2023-08-30T10:34:33;1.77;;;1.67;;
422;SDS011;198;48.752;9.180;2023-08-30T10:37:01;2.03;;;1.20;;
422;SDS011;198;48.752;9.180;2023-08-30T10:39:37;1.20;;;1.10;;
422;SDS011;198;48.752;9.180;2023-08-30T10:44:50;1.10;;;1.00;;
422;SDS011;198;48.752;9.180;2023-08-30T10:47:18;2.03;;;1.13;;
422;SDS011;198;48.752;9.180;2023-08-30T10:49:54;1.37;;;1.17;;
422;SDS011;198;48.752;9.180;2023-08-30T10:52:21;3.23;;;1.57;;
422;SDS011;198;48.752;9.180;2023-08-30T10:54:47;1.53;;;1.13;;
422;SDS011;198;48.752;9.180;2023-08-30T10:57:14;1.10;;;1.00;;
422;SDS011;198;48.752;9.180;2023-08-30T10:59:47;4.53;;;1.33;;
422;SDS011;198;48.752;9.180;2023-08-30T11:02:46;1.80;;;1.70;;
422;SDS011;198;48.752;9.180;2023-08-30T11:05:15;4.77;;;1.50;;
422;SDS011;198;48.752;9.180;2023-08-30T11:07:44;1.70;;;1.13;;
422;SDS011;198;48.752;9.180;2023-08-30T11:10:11;2.10;;;1.37;;
422;SDS011;198;48.752;9.180;2023-08-30T11:12:39;3.07;;;1.83;;
422;SDS011;198;48.752;9.180;2023-08-30T11:15:06;1.20;;;1.20;;
422;SDS011;198;48.752;9.180;2023-08-30T11:17:34;2.70;;;1.20;;
422;SDS011;198;48.752;9.180;2023-08-30T11:20:09;1.80;;;1.13;;
422;SDS011;198;48.752;9.180;2023-08-30T11:22:40;7.60;;;2.67;;
422;SDS011;198;48.752;9.180;2023-08-30T11:25:07;1.07;;;1.00;;
422;SDS011;198;48.752;9.180;2023-08-30T11:27:34;1.10;;;1.10;;
422;SDS011;198;48.752;9.180;2023-08-30T11:30:00;1.17;;;1.00;;
422;SDS011;198;48.752;9.180;2023-08-30T11:32:34;5.83;;;1.70;;
422;SDS011;198;48.752;9.180;2023-08-30T11:35:08;1.30;;;1.30;;
422;SDS011;198;48.752;9.180;2023-08-30T11:37:33;2.77;;;1.37;;
422;SDS011;198;48.752;9.180;2023-08-30T11:40:00;3.93;;;1.43;;
422;SDS011;198;48.752;9.180;2023-08-30T11:42:27;4.00;;;1.50;;
422;SDS011;198;48.752;9.180;2023-08-30T11:44:52;2.57;;;1.60;;
422;SDS011;198;48.752;9.180;2023-08-30T11:47:19;1.43;;;1.37;;
422;SDS011;198;48.752;9.180;2023-08-30T11:49:48;2.03;;;1.50;;
422;SDS011;198;48.752;9.180;2023-08-30T11:52:15;2.77;;;1.63;;
422;SDS011;198;48.752;9.180;2023-08-30T11:54:42;7.00;;;1.90;;
422;SDS011;198;48.752;9.180;2023-08-30T11:57:09;4.03;;;1.67;;
422;SDS011;198;48.752;9.180;2023-08-30T11:59:35;1.97;;;1.60;;
422;SDS011;198;48.752;9.180;2023-08-30T12:02:01;1.70;;;1.60;;
422;SDS011;198;48.752;9.180;2023-08-30T12:04:27;2.77;;;2.00;;
422;SDS011;198;48.752;9.180;2023-08-30T12:06:53;6.00;;;2.13;;
422;SDS011;198;48.752;9.180;2023-08-30T12:09:19;2.30;;;2.00;;
422;SDS011;198;48.752;9.180;2023-08-30T12:11:47;2.07;;;1.67;;
422;SDS011;198;48.752;9.180;2023-08-30T12:14:15;1.87;;;1.60;;
422;SDS011;198;48.752;9.180;2023-08-30T12:16:41;4.20;;;1.63;;
422;SDS011;198;48.752;9.180;2023-08-30T12:19:10;2.20;;;1.73;;
422;SDS011;198;48.752;9.180;2023-08-30T12:21:43;1.60;;;1.50;;
422;SDS011;198;48.752;9.180;2023-08-30T12:24:09;2.90;;;1.87;;
422;SDS011;198;48.752;9.180;2023-08-30T12:26:35;2.60;;;2.13;;
422;SDS011;198;48.752;9.180;2023-08-30T12:29:03;1.70;;;1.60;;
422;SDS011;198;48.752;9.180;2023-08-30T12:31:30;2.87;;;2.37;;
422;SDS011;198;48.752;9.180;2023-08-30T12:33:56;3.07;;;2.30;;
422;SDS011;198;48.752;9.180;2023-08-30T12:36:22;5.53;;;1.93;;
422;SDS011;198;48.752;9.180;2023-08-30T12:38:47;2.00;;;1.57;;
422;SDS011;198;48.752;9.180;2023-08-30T12:41:13;2.13;;;1.77;;
422;SDS011;198;48.752;9.180;2023-08-30T12:43:38;2.47;;;1.87;;
422;SDS011;198;48.752;9.180;2023-08-30T12:46:04;2.27;;;1.30;;
422;SDS011;198;48.752;9.180;2023-08-30T12:48:29;3.60;;;2.07;;
422;SDS011;198;48.752;9.180;2023-08-30T12:50:55;1.60;;;1.50;;
422;SDS011;198;48.752;9.180;2023-08-30T12:53:21;1.70;;;1.60;;
422;SDS011;198;48.752;9.180;2023-08-30T12:55:46;2.47;;;2.20;;
422;SDS011;198;48.752;9.180;2023-08-30T12:58:12;2.30;;;2.10;;
422;SDS011;198;48.752;9.180;2023-08-30T13:00:38;2.57;;;2.37;;
422;SDS011;198;48.752;9.180;2023-08-30T13:03:04;2.53;;;2.13;;
422;SDS011;198;48.752;9.180;2023-08-30T13:05:30;2.00;;;1.60;;
422;SDS011;198;48.752;9.180;2023-08-30T13:07:57;4.80;;;2.40;;
422;SDS011;198;48.752;9.180;2023-08-30T13:10:23;4.20;;;3.10;;
422;SDS011;198;48.752;9.180;2023-08-30T13:12:48;2.07;;;1.87;;
422;SDS011;198;48.752;9.180;2023-08-30T13:15:14;3.10;;;2.67;;
422;SDS011;198;48.752;9.180;2023-08-30T13:17:39;3.17;;;2.43;;
422;SDS011;198;48.752;9.180;2023-08-30T13:20:05;4.57;;;2.63;;
422;SDS011;198;48.752;9.180;2023-08-30T13:22:31;2.20;;;2.00;;
422;SDS011;198;48.752;9.180;2023-08-30T13:24:57;2.53;;;2.20;;
422;SDS011;198;48.752;9.180;2023-08-30T13:27:22;3.90;;;2.20;;
422;SDS011;198;48.752;9.180;2023-08-30T13:29:48;2.43;;;2.00;;
422;SDS011;198;48.752;9.180;2023-08-30T13:32:14;2.50;;;2.00;;
422;SDS011;198;48.752;9.180;2023-08-30T13:34:39;2.90;;;1.90;;
422;SDS011;198;48.752;9.180;2023-08-30T13:37:05;4.60;;;1.87;;
422;SDS011;198;48.752;9.180;2023-08-30T13:39:30;3.53;;;1.80;;
422;SDS011;198;48.752;9.180;2023-08-30T13:41:56;2.13;;;1.40;;
422;SDS011;198;48.752;9.180;2023-08-30T13:44:21;1.30;;;1.20;;
422;SDS011;198;48.752;9.180;2023-08-30T13:46:47;1.83;;;0.90;;
422;SDS011;198;48.752;9.180;2023-08-30T13:49:13;1.00;;;1.00;;
422;SDS011;198;48.752;9.180;2023-08-30T13:51:39;3.03;;;1.00;;
422;SDS011;198;48.752;9.180;2023-08-30T13:54:05;2.30;;;1.53;;
422;SDS011;198;48.752;9.180;2023-08-30T13:56:30;1.33;;;1.27;;
422;SDS011;198;48.752;9.180;2023-08-30T13:58:57;1.33;;;1.10;;
422;SDS011;198;48.752;9.180;2023-08-30T14:01:22;1.50;;;1.23;;
422;SDS011;198;48.752;9.180;2023-08-30T14:03:48;1.90;;;1.13;;
422;SDS011;198;48.752;9.180;2023-08-30T14:06:13;1.23;;;1.20;;
422;SDS011;198;48.752;9.180;2023-08-30T14:08:39;2.07;;;1.60;;
422;SDS011;198;48.752;9.180;2023-08-30T14:11:05;4.13;;;1.60;;
422;SDS011;198;48.752;9.180;2023-08-30T14:13:30;1.40;;;1.30;;
422;SDS011;198;48.752;9.180;2023-08-30T14:15:59;1.70;;;1.67;;
422;SDS011;198;48.752;9.180;2023-08-30T14:18:26;2.53;;;1.77;;
422;SDS011;198;48.752;9.180;2023-08-30T14:20:55;2.67;;;1.83;;
422;SDS011;198;48.752;9.180;2023-08-30T14:23:24;3.67;;;1.97;;
422;SDS011;198;48.752;9.180;2023-08-30T14:25:59;1.83;;;1.37;;
422;SDS011;198;48.752;9.180;2023-08-30T14:28:33;2.33;;;1.77;;
422;SDS011;198;48.752;9.180;2023-08-30T14:30:58;1.60;;;1.50;;
422;SDS011;198;48.752;9.180;2023-08-30T14:33:24;4.53;;;1.73;;
422;SDS011;198;48.752;9.180;2023-08-30T14:35:49;3.10;;;1.43;;
422;SDS011;198;48.752;9.180;2023-08-30T14:38:15;1.60;;;1.60;;
422;SDS011;198;48.752;9.180;2023-08-30T14:40:40;2.10;;;1.60;;
422;SDS011;198;48.752;9.180;2023-08-30T14:43:06;2.10;;;1.90;;
422;SDS011;198;48.752;9.180;2023-08-30T14:45:31;2.77;;;1.83;;
422;SDS011;198;48.752;9.180;2023-08-30T14:47:57;1.77;;;1.40;;
422;SDS011;198;48.752;9.180;2023-08-30T14:50:23;2.37;;;2.00;;
422;SDS011;198;48.752;9.180;2023-08-30T14:52:48;4.80;;;2.17;;
422;SDS011;198;48.752;9.180;2023-08-30T14:55:15;3.90;;;2.33;;
422;SDS011;198;48.752;9.180;2023-08-30T14:57:41;3.03;;;1.87;;
422;SDS011;198;48.752;9.180;2023-08-30T15:00:06;2.60;;;2.17;;
422;SDS011;198;48.752;9.180;2023-08-30T15:02:32;3.63;;;1.73;;
422;SDS011;198;48.752;9.180;2023-08-30T15:04:58;1.63;;;1.53;;
422;SDS011;198;48.752;9.180;2023-08-30T15:07:23;1.87;;;1.67;;
422;SDS011;198;48.752;9.180;2023-08-30T15:09:49;2.77;;;1.60;;
422;SDS011;198;48.752;9.180;2023-08-30T15:12:14;2.80;;;2.17;;
422;SDS011;198;48.752;9.180;2023-08-30T15:14:40;2.37;;;2.10;;
422;SDS011;198;48.752;9.180;2023-08-30T15:17:07;2.97;;;1.63;;
422;SDS011;198;48.752;9.180;2023-08-30T15:19:36;3.83;;;2.40;;
422;SDS011;198;48.752;9.180;2023-08-30T15:22:01;2.10;;;1.70;;
422;SDS011;198;48.752;9.180;2023-08-30T15:24:27;1.80;;;1.50;;
422;SDS011;198;48.752;9.180;2023-08-30T15:26:53;5.90;;;1.40;;
422;SDS011;198;48.752;9.180;2023-08-30T15:29:18;1.93;;;1.60;;
422;SDS011;198;48.752;9.180;2023-08-30T15:31:44;2.90;;;2.23;;
422;SDS011;198;48.752;9.180;2023-08-30T15:34:10;3.93;;;2.10;;
422;SDS011;198;48.752;9.180;2023-08-30T15:36:36;2.73;;;1.50;;
422;SDS011;198;48.752;9.180;2023-08-30T15:39:01;1.57;;;1.17;;
422;SDS011;198;48.752;9.180;2023-08-30T15:41:27;1.63;;;1.60;;